Disclaimer

Please do not use the information listed here in-flight or in-navigation, as they are not provided to us by the airports but are provided by volunteers, so they might be outdated.

Search


Regions


Airport information page

Radio informations:
Tower (TWR) - 118.4 MHz

Airport informations:
Latitude: 33° 04' 24.19" N
Longitude: 016° 20' 59.91" W
Elevation: 341 feet - 104 meters
Operating hours: 24 hour operations
Operating agency: Military-civil joint use airport
Timezone: UTC 0(+1DT) - Last Sunday in March to last Sunday in October
Fuel: Jet A1+, Jet A1 with icing inhibitor.

Runway information:
18/36 - 9861 x 148 feet< - >3006 x 45 meters

Recent METARs:
LPPS 202230Z 36003KT 9999 VCSH SCT012 BKN030 16/14 Q1016
LPPS 202300Z VRB03KT 9999 SCT012 BKN030 16/14 Q1016
LPPS 202330Z 02006KT 350V060 9999 SCT012 BKN030 16/11 Q1016

Airport on the map: